Time;durP1;ratioP1;P1;durP2;ratioP2;P2;SDS_P1;SDS_P2;PMS_P1;PMS_P2;Temp;Humidity;BMP_temperature;BMP_pressure;BME280_temperature;BME280_humidity;BME280_pressure;Samples;Min_cycle;Max_cycle;Signal;HPM_P1;HPM_P2
2021/11/02 00:00:14;;;;;;;5.30;2.20;;;;;;;;;;5093951;28;20581;-49
2021/11/02 00:02:44;;;;;;;4.78;1.92;;;;;;;;;;5091700;28;20038;-50
2021/11/02 00:05:09;;;;;;;9.13;2.15;;;;;;;;;;5093312;28;20046;-51
2021/11/02 00:07:35;;;;;;;12.02;2.63;;;;;;;;;;5091861;28;20028;-49
2021/11/02 00:10:03;;;;;;;8.90;2.08;;;;;;;;;;5095116;28;20049;-50
2021/11/02 00:12:28;;;;;;;7.07;1.90;;;;;;;;;;5073488;28;20047;-50
2021/11/02 00:14:54;;;;;;;11.68;2.65;;;;;;;;;;5095137;28;20035;-52
2021/11/02 00:17:25;;;;;;;4.60;1.52;;;;;;;;;;5092811;28;20059;-51
2021/11/02 00:19:56;;;;;;;8.63;2.17;;;;;;;;;;5099460;28;20036;-49
2021/11/02 00:22:23;;;;;;;13.10;3.17;;;;;;;;;;5098066;28;20339;-51
2021/11/02 00:27:21;;;;;;;3.63;1.95;;;;;;;;;;5102903;28;20047;-50
2021/11/02 00:29:47;;;;;;;6.43;1.85;;;;;;;;;;5100401;28;20517;-51
2021/11/02 00:32:15;;;;;;;8.82;1.90;;;;;;;;;;5097174;28;20038;-48
2021/11/02 00:34:40;;;;;;;8.55;1.88;;;;;;;;;;5095076;28;20028;-51
2021/11/02 00:37:06;;;;;;;9.98;2.40;;;;;;;;;;5094554;28;20406;-48
2021/11/02 00:39:32;;;;;;;4.50;1.70;;;;;;;;;;5099798;28;20028;-48
2021/11/02 00:41:58;;;;;;;16.27;2.03;;;;;;;;;;5097171;28;20029;-50
2021/11/02 00:44:23;;;;;;;3.65;1.15;;;;;;;;;;5098657;28;20055;-52
2021/11/02 00:46:51;;;;;;;16.45;2.60;;;;;;;;;;5096133;28;20148;-49
2021/11/02 00:49:18;;;;;;;9.82;1.90;;;;;;;;;;5098156;28;20051;-52
2021/11/02 00:51:47;;;;;;;7.15;2.17;;;;;;;;;;5097304;28;20038;-50
2021/11/02 00:54:14;;;;;;;7.80;1.80;;;;;;;;;;5100451;28;20016;-51
2021/11/02 00:56:40;;;;;;;4.90;2.03;;;;;;;;;;5095697;28;20035;-50
2021/11/02 00:59:06;;;;;;;9.68;2.00;;;;;;;;;;5091875;28;20032;-52
2021/11/02 01:01:33;;;;;;;8.63;2.13;;;;;;;;;;5095987;28;20054;-51
2021/11/02 01:04:01;;;;;;;5.97;1.60;;;;;;;;;;5099572;28;20484;-49
2021/11/02 01:06:27;;;;;;;6.95;1.52;;;;;;;;;;5095637;28;20036;-51
2021/11/02 01:08:52;;;;;;;2.50;1.55;;;;;;;;;;5093501;28;20085;-52
2021/11/02 01:11:19;;;;;;;7.30;2.13;;;;;;;;;;5097356;28;20059;-51
2021/11/02 01:13:44;;;;;;;7.40;1.60;;;;;;;;;;5097600;28;20138;-52
2021/11/02 01:16:10;;;;;;;4.25;1.42;;;;;;;;;;5095952;28;20537;-51
2021/11/02 01:18:35;;;;;;;15.48;1.60;;;;;;;;;;5082687;28;20035;-52
2021/11/02 01:21:02;;;;;;;9.10;1.77;;;;;;;;;;5094516;28;20051;-52
2021/11/02 01:23:28;;;;;;;11.77;1.63;;;;;;;;;;5092038;28;20522;-53
2021/11/02 01:25:53;;;;;;;6.95;1.95;;;;;;;;;;5094023;28;20039;-52
2021/11/02 01:28:19;;;;;;;5.13;1.50;;;;;;;;;;5093369;28;20417;-49
2021/11/02 01:30:45;;;;;;;3.85;1.15;;;;;;;;;;5099992;28;20032;-49
2021/11/02 01:33:10;;;;;;;7.35;1.65;;;;;;;;;;5096600;28;20558;-48
2021/11/02 01:35:37;;;;;;;5.32;1.60;;;;;;;;;;5095628;28;20020;-48
2021/11/02 01:38:05;;;;;;;16.38;1.65;;;;;;;;;;5097425;28;20168;-49
2021/11/02 01:40:31;;;;;;;5.55;1.48;;;;;;;;;;5085550;28;20037;-49
2021/11/02 01:42:56;;;;;;;11.15;2.10;;;;;;;;;;5091446;28;20024;-49
2021/11/02 01:45:27;;;;;;;8.93;1.35;;;;;;;;;;5093729;28;20070;-48
2021/11/02 01:47:54;;;;;;;5.55;1.30;;;;;;;;;;5097432;28;20042;-52
2021/11/02 01:50:19;;;;;;;3.83;1.10;;;;;;;;;;5096951;28;20024;-53
2021/11/02 01:52:45;;;;;;;6.22;1.55;;;;;;;;;;5098075;28;20077;-48
2021/11/02 01:55:13;;;;;;;8.88;1.60;;;;;;;;;;5097848;28;20040;-50
2021/11/02 01:57:41;;;;;;;6.55;1.40;;;;;;;;;;5097720;28;20101;-48
2021/11/02 02:00:10;;;;;;;10.52;2.03;;;;;;;;;;5091450;28;20028;-50
2021/11/02 02:02:49;;;;;;;16.35;1.63;;;;;;;;;;5094092;28;20324;-51
2021/11/02 02:05:23;;;;;;;7.95;0.98;;;;;;;;;;5095131;28;20062;-50
2021/11/02 02:07:51;;;;;;;3.63;1.40;;;;;;;;;;5092021;28;20503;-51
2021/11/02 02:10:23;;;;;;;6.22;1.45;;;;;;;;;;5098761;28;20012;-48
2021/11/02 02:13:14;;;;;;;7.55;1.58;;;;;;;;;;5096163;28;20020;-48
2021/11/02 02:15:49;;;;;;;7.97;2.10;;;;;;;;;;5091114;28;20047;-51
2021/11/02 02:18:50;;;;;;;8.68;1.92;;;;;;;;;;5099444;28;20019;-49
2021/11/02 02:21:50;;;;;;;7.18;1.77;;;;;;;;;;5047833;28;20047;-49
2021/11/02 02:24:34;;;;;;;4.45;1.48;;;;;;;;;;5090600;28;20112;-49
2021/11/02 02:27:24;;;;;;;4.53;1.42;;;;;;;;;;5094679;27;20039;-50
2021/11/02 02:29:51;;;;;;;8.00;1.30;;;;;;;;;;5105468;27;20073;-48
2021/11/02 02:32:22;;;;;;;10.02;3.45;;;;;;;;;;5094864;27;20103;-48
2021/11/02 02:34:51;;;;;;;8.02;1.55;;;;;;;;;;5095561;27;20430;-48
2021/11/02 02:37:22;;;;;;;7.20;1.40;;;;;;;;;;5098183;28;20039;-51
2021/11/02 02:39:49;;;;;;;4.75;1.23;;;;;;;;;;5097345;28;20032;-50
2021/11/02 02:42:19;;;;;;;7.57;1.15;;;;;;;;;;5095386;28;20122;-49
2021/11/02 02:44:48;;;;;;;4.88;1.63;;;;;;;;;;5096552;28;20150;-49
2021/11/02 02:47:18;;;;;;;5.93;1.10;;;;;;;;;;5092859;28;20032;-48
2021/11/02 02:49:46;;;;;;;6.70;1.45;;;;;;;;;;5091744;28;20163;-50
2021/11/02 02:52:13;;;;;;;7.57;1.17;;;;;;;;;;5090226;28;20394;-53
2021/11/02 02:54:43;;;;;;;11.20;2.10;;;;;;;;;;5095148;28;20089;-53
2021/11/02 02:57:10;;;;;;;5.53;1.33;;;;;;;;;;5093408;28;20027;-50
2021/11/02 02:59:37;;;;;;;10.18;1.50;;;;;;;;;;5094441;28;20478;-51
2021/11/02 03:02:04;;;;;;;5.35;1.23;;;;;;;;;;5094383;28;20079;-51
2021/11/02 03:04:34;;;;;;;10.93;2.10;;;;;;;;;;5093992;28;20028;-50
2021/11/02 03:07:01;;;;;;;3.53;1.08;;;;;;;;;;5095848;28;20043;-50
2021/11/02 03:09:27;;;;;;;8.80;1.52;;;;;;;;;;5095155;28;20069;-50
2021/11/02 03:11:55;;;;;;;9.10;1.63;;;;;;;;;;5093321;28;20036;-52
2021/11/02 03:14:31;;;;;;;12.57;1.92;;;;;;;;;;5094435;28;20088;-50
2021/11/02 03:17:09;;;;;;;6.75;1.70;;;;;;;;;;5091123;28;20024;-51
2021/11/02 03:20:32;;;;;;;7.00;1.90;;;;;;;;;;5096143;28;20405;-51
2021/11/02 03:50:22;;;;;;;14.32;1.58;;;;;;;;;;5098260;28;20139;-48
2021/11/02 03:55:44;;;;;;;6.32;1.55;;;;;;;;;;5092953;28;20081;-49
2021/11/02 03:58:17;;;;;;;6.28;1.67;;;;;;;;;;5097649;28;20035;-48
2021/11/02 04:47:16;;;;;;;11.13;1.80;;;;;;;;;;5095141;28;20031;-52
2021/11/02 05:48:01;;;;;;;10.93;1.90;;;;;;;;;;5098544;28;20101;-48
2021/11/02 05:56:09;;;;;;;8.40;1.98;;;;;;;;;;5096586;28;20050;-48
2021/11/02 06:03:50;;;;;;;6.28;1.63;;;;;;;;;;5095600;28;20092;-47
2021/11/02 06:09:03;;;;;;;11.55;2.10;;;;;;;;;;5091743;28;20517;-53
2021/11/02 06:28:50;;;;;;;16.33;1.63;;;;;;;;;;5093386;28;20576;-49
2021/11/02 06:31:25;;;;;;;8.60;1.40;;;;;;;;;;5094152;28;20068;-52
2021/11/02 06:34:05;;;;;;;11.30;1.48;;;;;;;;;;5095206;28;20067;-52
2021/11/02 06:42:07;;;;;;;10.10;1.63;;;;;;;;;;5092736;28;20031;-51
2021/11/02 07:19:28;;;;;;;5.53;1.60;;;;;;;;;;5095104;28;20039;-47
2021/11/02 07:22:22;;;;;;;8.02;1.80;;;;;;;;;;5089441;28;20589;-49
2021/11/02 07:24:53;;;;;;;8.52;2.55;;;;;;;;;;5089154;28;20047;-59
2021/11/02 07:27:53;;;;;;;9.57;2.03;;;;;;;;;;5093389;28;20040;-59
2021/11/02 08:48:40;;;;;;;11.63;2.10;;;;;;;;;;5100293;28;20028;-53
2021/11/02 08:51:06;;;;;;;10.95;3.35;;;;;;;;;;5096968;28;20024;-54
2021/11/02 08:53:34;;;;;;;18.25;3.05;;;;;;;;;;5103964;28;20028;-54
2021/11/02 08:56:01;;;;;;;10.95;3.05;;;;;;;;;;5080014;28;20024;-54
2021/11/02 08:58:30;;;;;;;10.32;2.95;;;;;;;;;;5077740;28;20592;-53
2021/11/02 09:00:59;;;;;;;14.60;3.08;;;;;;;;;;5095856;28;20537;-54
2021/11/02 09:03:32;;;;;;;22.70;4.60;;;;;;;;;;5089375;28;20486;-55
2021/11/02 09:06:05;;;;;;;12.52;3.65;;;;;;;;;;5101992;28;20028;-53
2021/11/02 09:08:39;;;;;;;11.10;3.08;;;;;;;;;;5094757;28;20040;-55
2021/11/02 09:11:05;;;;;;;7.22;2.83;;;;;;;;;;5096105;28;20183;-55
2021/11/02 09:13:34;;;;;;;6.72;2.92;;;;;;;;;;5098413;28;20070;-55
2021/11/02 09:16:01;;;;;;;11.13;3.10;;;;;;;;;;5097089;28;20016;-54
2021/11/02 09:18:27;;;;;;;6.10;3.28;;;;;;;;;;5078211;28;20394;-54
2021/11/02 09:20:55;;;;;;;10.27;3.25;;;;;;;;;;5099013;28;20031;-54
2021/11/02 09:23:21;;;;;;;11.93;4.72;;;;;;;;;;5099497;27;20130;-55
2021/11/02 09:25:51;;;;;;;8.88;3.08;;;;;;;;;;5095638;28;20111;-55
2021/11/02 09:28:18;;;;;;;9.30;3.28;;;;;;;;;;5083190;28;20020;-55
2021/11/02 09:30:43;;;;;;;13.27;4.05;;;;;;;;;;5107132;28;20024;-56
2021/11/02 09:33:09;;;;;;;13.98;3.65;;;;;;;;;;5092507;28;20143;-54
2021/11/02 09:35:36;;;;;;;6.88;3.30;;;;;;;;;;5095006;28;20032;-55
2021/11/02 09:38:22;;;;;;;9.07;3.40;;;;;;;;;;5094017;28;20035;-55
2021/11/02 09:41:20;;;;;;;8.55;2.90;;;;;;;;;;5102349;28;20045;-56
2021/11/02 09:44:31;;;;;;;5.50;2.70;;;;;;;;;;5100063;28;20089;-56
2021/11/02 09:47:17;;;;;;;5.32;2.45;;;;;;;;;;5099079;28;20390;-55
2021/11/02 09:50:07;;;;;;;7.70;2.75;;;;;;;;;;5093992;28;20031;-55
2021/11/02 09:53:00;;;;;;;12.77;2.97;;;;;;;;;;5100998;28;20562;-54
2021/11/02 09:55:45;;;;;;;10.10;2.55;;;;;;;;;;5102852;27;20462;-55
2021/11/02 09:58:49;;;;;;;9.00;3.20;;;;;;;;;;5099839;28;20477;-54
2021/11/02 10:01:41;;;;;;;11.45;3.08;;;;;;;;;;5106829;28;20656;-55
2021/11/02 10:04:09;;;;;;;8.15;3.40;;;;;;;;;;5098419;28;20508;-54
2021/11/02 10:06:50;;;;;;;10.75;3.42;;;;;;;;;;5100364;28;20056;-54
2021/11/02 10:09:31;;;;;;;7.53;3.28;;;;;;;;;;5102366;28;20031;-54
2021/11/02 10:12:11;;;;;;;11.25;3.88;;;;;;;;;;5095083;28;20020;-54
2021/11/02 10:14:50;;;;;;;7.20;3.00;;;;;;;;;;5095629;28;20023;-55
2021/11/02 10:17:36;;;;;;;10.73;3.88;;;;;;;;;;5098095;28;20068;-55
2021/11/02 10:20:04;;;;;;;13.48;4.03;;;;;;;;;;5097748;28;20073;-51
2021/11/02 10:22:48;;;;;;;9.27;4.20;;;;;;;;;;5092432;28;20550;-53
2021/11/02 10:25:16;;;;;;;11.70;4.30;;;;;;;;;;5092622;28;20122;-53
2021/11/02 10:28:05;;;;;;;13.73;4.22;;;;;;;;;;5096003;28;20043;-53
2021/11/02 10:30:55;;;;;;;16.13;4.47;;;;;;;;;;5099128;28;20552;-52
2021/11/02 10:33:48;;;;;;;12.23;3.63;;;;;;;;;;5098812;28;20032;-52
2021/11/02 10:36:18;;;;;;;5.97;3.40;;;;;;;;;;5093506;28;20044;-54
2021/11/02 10:39:03;;;;;;;18.63;4.28;;;;;;;;;;5081699;28;20028;-53
2021/11/02 10:41:36;;;;;;;10.27;4.00;;;;;;;;;;5096528;28;20039;-54
2021/11/02 10:44:29;;;;;;;13.48;4.70;;;;;;;;;;5093691;28;20054;-54
2021/11/02 10:47:04;;;;;;;14.32;4.80;;;;;;;;;;5098440;28;20034;-52
2021/11/02 10:49:54;;;;;;;8.85;3.70;;;;;;;;;;5098191;28;20051;-52
2021/11/02 10:52:26;;;;;;;13.60;4.45;;;;;;;;;;5092523;28;20122;-53
2021/11/02 10:54:58;;;;;;;;;;;;;;;;;;5095373;28;20056;-53
2021/11/02 10:57:33;;;;;;;14.90;5.15;;;;;;;;;;5097353;28;19922;-51
2021/11/02 11:00:03;;;;;;;9.43;3.72;;;;;;;;;;5097197;28;20561;-51
2021/11/02 11:02:30;;;;;;;11.65;3.42;;;;;;;;;;5102380;28;20067;-51
2021/11/02 11:05:00;;;;;;;13.13;4.18;;;;;;;;;;5097886;28;20062;-50
2021/11/02 11:07:36;;;;;;;19.13;4.68;;;;;;;;;;5091881;28;20289;-53
2021/11/02 11:10:03;;;;;;;9.93;4.68;;;;;;;;;;5098168;28;20020;-53
2021/11/02 11:12:34;;;;;;;12.05;4.68;;;;;;;;;;5092022;28;20035;-52
2021/11/02 11:15:05;;;;;;;16.83;6.32;;;;;;;;;;5092697;28;20699;-52
2021/11/02 11:17:32;;;;;;;20.15;5.25;;;;;;;;;;5092456;28;20238;-53
2021/11/02 11:20:12;;;;;;;15.07;4.85;;;;;;;;;;5089779;28;22449;-53
2021/11/02 11:22:45;;;;;;;20.88;5.68;;;;;;;;;;5093332;28;20023;-54
2021/11/02 11:25:14;;;;;;;17.17;4.78;;;;;;;;;;5098714;28;20116;-54
2021/11/02 11:27:55;;;;;;;13.43;4.80;;;;;;;;;;5091770;28;20121;-50
2021/11/02 11:30:21;;;;;;;15.13;4.90;;;;;;;;;;5093376;28;20070;-53
2021/11/02 11:32:48;;;;;;;15.52;5.80;;;;;;;;;;5091296;28;20043;-52
2021/11/02 11:35:14;;;;;;;19.08;5.55;;;;;;;;;;5088536;28;20533;-52
2021/11/02 11:37:42;;;;;;;14.70;5.20;;;;;;;;;;5096998;28;20478;-53
2021/11/02 11:40:09;;;;;;;11.68;5.57;;;;;;;;;;5090296;28;20031;-51
2021/11/02 11:42:36;;;;;;;14.20;5.75;;;;;;;;;;5092293;28;20031;-52
2021/11/02 11:45:04;;;;;;;18.75;5.70;;;;;;;;;;5093454;28;20099;-50
2021/11/02 11:47:31;;;;;;;17.63;5.95;;;;;;;;;;5093171;28;20032;-50
2021/11/02 11:50:21;;;;;;;14.25;5.38;;;;;;;;;;5098640;28;20427;-52
2021/11/02 11:52:49;;;;;;;14.57;5.10;;;;;;;;;;5095669;28;20429;-53
2021/11/02 11:55:27;;;;;;;12.57;5.03;;;;;;;;;;5097222;28;20687;-52
2021/11/02 11:58:19;;;;;;;15.55;5.57;;;;;;;;;;5094894;28;20020;-52
2021/11/02 12:00:47;;;;;;;21.00;6.53;;;;;;;;;;5092181;28;20056;-53
2021/11/02 12:03:27;;;;;;;15.07;4.80;;;;;;;;;;5092500;28;20032;-52
2021/11/02 12:06:17;;;;;;;12.82;5.53;;;;;;;;;;5095559;28;20028;-53
2021/11/02 12:09:17;;;;;;;14.02;6.30;;;;;;;;;;5090125;28;20021;-53
2021/11/02 12:11:43;;;;;;;11.73;4.47;;;;;;;;;;5092162;28;20038;-55
2021/11/02 12:14:20;;;;;;;16.40;5.50;;;;;;;;;;5099395;28;20031;-53
2021/11/02 12:16:46;;;;;;;8.75;3.78;;;;;;;;;;5100677;28;20056;-54
2021/11/02 12:19:15;;;;;;;12.73;5.00;;;;;;;;;;5104630;28;20066;-53
2021/11/02 12:21:43;;;;;;;8.15;4.28;;;;;;;;;;5093666;28;20051;-54
2021/11/02 12:24:15;;;;;;;13.88;4.95;;;;;;;;;;5095948;28;20036;-53
2021/11/02 12:26:44;;;;;;;15.73;6.03;;;;;;;;;;5098896;28;20067;-54
2021/11/02 12:29:28;;;;;;;8.55;3.92;;;;;;;;;;5101553;28;20068;-54
2021/11/02 12:32:03;;;;;;;9.60;3.83;;;;;;;;;;5106848;28;20131;-56
2021/11/02 12:34:41;;;;;;;11.70;4.28;;;;;;;;;;5102815;28;20427;-51
2021/11/02 12:37:10;;;;;;;12.70;5.18;;;;;;;;;;5106917;28;20077;-55
2021/11/02 12:39:36;;;;;;;18.38;5.45;;;;;;;;;;5102521;28;20035;-55
2021/11/02 12:42:03;;;;;;;11.70;6.20;;;;;;;;;;5105069;28;20016;-53
2021/11/02 12:44:30;;;;;;;8.70;5.25;;;;;;;;;;5102649;28;20027;-56
2021/11/02 12:46:59;;;;;;;13.38;6.10;;;;;;;;;;5102472;27;20080;-55
2021/11/02 12:49:32;;;;;;;20.73;6.80;;;;;;;;;;5096061;28;20051;-56
2021/11/02 12:52:06;;;;;;;16.88;5.45;;;;;;;;;;5105481;28;20068;-56
2021/11/02 12:54:34;;;;;;;20.30;6.45;;;;;;;;;;5103768;27;20035;-56
2021/11/02 12:57:15;;;;;;;17.88;6.72;;;;;;;;;;5102405;28;20093;-56
2021/11/02 12:59:51;;;;;;;12.73;4.85;;;;;;;;;;5101258;28;20058;-56
2021/11/02 13:02:30;;;;;;;19.38;5.65;;;;;;;;;;5092558;28;20052;-56
2021/11/02 13:05:02;;;;;;;8.85;4.50;;;;;;;;;;5101020;28;20032;-54
2021/11/02 13:07:35;;;;;;;9.98;4.25;;;;;;;;;;5101291;28;20035;-53
2021/11/02 13:10:03;;;;;;;12.13;5.30;;;;;;;;;;5102510;28;20024;-55
2021/11/02 13:12:30;;;;;;;11.23;5.20;;;;;;;;;;5095880;28;20019;-55
2021/11/02 13:15:04;;;;;;;11.50;5.75;;;;;;;;;;5098189;28;20035;-56
2021/11/02 13:17:41;;;;;;;7.30;3.85;;;;;;;;;;5091275;28;20132;-54
2021/11/02 13:20:08;;;;;;;12.10;4.43;;;;;;;;;;5095333;28;20523;-55
2021/11/02 13:22:34;;;;;;;11.32;5.20;;;;;;;;;;5094180;28;20566;-55
2021/11/02 13:25:10;;;;;;;9.63;4.47;;;;;;;;;;5102012;28;20118;-55
2021/11/02 13:27:41;;;;;;;11.73;6.00;;;;;;;;;;5079014;28;20076;-55
2021/11/02 13:30:27;;;;;;;11.15;4.95;;;;;;;;;;5093901;28;20577;-54
2021/11/02 13:33:18;;;;;;;8.95;4.50;;;;;;;;;;5098796;28;20062;-55
2021/11/02 13:35:52;;;;;;;10.00;4.30;;;;;;;;;;5098466;28;20032;-56
2021/11/02 13:38:40;;;;;;;9.43;4.70;;;;;;;;;;5104466;28;20035;-56
2021/11/02 13:41:12;;;;;;;13.32;4.50;;;;;;;;;;5091793;28;20390;-56
2021/11/02 13:43:40;;;;;;;9.80;4.77;;;;;;;;;;5104061;28;20075;-54
2021/11/02 13:46:10;;;;;;;9.93;4.70;;;;;;;;;;5097102;28;20040;-55
2021/11/02 13:48:37;;;;;;;11.05;5.18;;;;;;;;;;5096879;28;20055;-55
2021/11/02 13:51:06;;;;;;;11.25;5.78;;;;;;;;;;5099214;28;20034;-55
2021/11/02 13:53:35;;;;;;;14.13;5.40;;;;;;;;;;5094858;27;20031;-56
2021/11/02 13:56:13;;;;;;;13.25;5.13;;;;;;;;;;5109355;27;20036;-56
2021/11/02 13:58:39;;;;;;;12.10;4.10;;;;;;;;;;5099603;27;20020;-56
2021/11/02 14:01:12;;;;;;;8.73;4.55;;;;;;;;;;5095691;28;20479;-56
2021/11/02 14:03:45;;;;;;;9.95;4.65;;;;;;;;;;5091067;28;20448;-57
2021/11/02 14:06:15;;;;;;;15.43;4.60;;;;;;;;;;5091613;28;20402;-56
2021/11/02 14:08:43;;;;;;;11.23;4.95;;;;;;;;;;5096920;28;20078;-57
2021/11/02 14:11:19;;;;;;;9.10;4.15;;;;;;;;;;5084439;28;20384;-57
2021/11/02 14:13:47;;;;;;;8.35;3.75;;;;;;;;;;5096698;28;20111;-56
2021/11/02 14:16:14;;;;;;;9.75;4.78;;;;;;;;;;5090303;28;20486;-56
2021/11/02 14:18:40;;;;;;;15.00;5.65;;;;;;;;;;5096167;28;20304;-56
2021/11/02 14:21:10;;;;;;;12.38;5.18;;;;;;;;;;5095369;28;20028;-57
2021/11/02 14:23:42;;;;;;;14.73;5.13;;;;;;;;;;5090215;28;20064;-57
2021/11/02 14:26:26;;;;;;;12.07;3.53;;;;;;;;;;5092322;28;20046;-56
2021/11/02 14:29:08;;;;;;;11.00;4.15;;;;;;;;;;5103840;28;20039;-56
2021/11/02 14:31:34;;;;;;;13.35;4.63;;;;;;;;;;5094509;28;20051;-56
2021/11/02 14:34:00;;;;;;;9.65;3.20;;;;;;;;;;5098665;28;20507;-56
2021/11/02 14:36:38;;;;;;;10.60;3.50;;;;;;;;;;5100635;28;20505;-56
2021/11/02 14:39:08;;;;;;;13.52;4.05;;;;;;;;;;5098164;28;20106;-56
2021/11/02 14:41:36;;;;;;;10.77;3.47;;;;;;;;;;5095895;28;20144;-56
2021/11/02 14:44:25;;;;;;;13.18;3.83;;;;;;;;;;5101695;28;20020;-57
2021/11/02 14:46:54;;;;;;;6.80;2.78;;;;;;;;;;5084072;28;20039;-56
2021/11/02 14:49:29;;;;;;;6.53;2.03;;;;;;;;;;5089762;28;20062;-58
2021/11/02 14:52:05;;;;;;;6.38;2.47;;;;;;;;;;5100892;28;20032;-57
2021/11/02 14:54:45;;;;;;;9.52;2.38;;;;;;;;;;5097549;28;20032;-57
2021/11/02 14:57:19;;;;;;;11.23;2.10;;;;;;;;;;5090302;28;20031;-57
2021/11/02 14:59:55;;;;;;;6.95;1.35;;;;;;;;;;5093389;28;20028;-57
2021/11/02 15:02:30;;;;;;;10.80;1.88;;;;;;;;;;5094324;28;20138;-58
2021/11/02 15:04:58;;;;;;;4.90;1.00;;;;;;;;;;5093167;28;20024;-57
2021/11/02 15:07:25;;;;;;;8.32;1.20;;;;;;;;;;5075431;27;20044;-57
2021/11/02 15:09:52;;;;;;;7.25;1.00;;;;;;;;;;5094037;28;20027;-57
2021/11/02 15:12:18;;;;;;;8.52;1.50;;;;;;;;;;5093816;28;20095;-57
2021/11/02 15:14:44;;;;;;;5.10;0.98;;;;;;;;;;5098183;28;20129;-57
2021/11/02 15:17:11;;;;;;;9.23;1.40;;;;;;;;;;5097042;28;20122;-57
2021/11/02 15:19:39;;;;;;;9.63;1.35;;;;;;;;;;5074048;28;20461;-57
2021/11/02 15:22:16;;;;;;;7.93;1.63;;;;;;;;;;5093233;28;20078;-57
2021/11/02 15:24:46;;;;;;;13.20;1.83;;;;;;;;;;5094014;28;20451;-56
2021/11/02 15:27:18;;;;;;;9.75;1.77;;;;;;;;;;5100595;28;20016;-58
2021/11/02 15:29:49;;;;;;;13.05;2.42;;;;;;;;;;5094203;28;20359;-57
2021/11/02 15:32:22;;;;;;;10.10;2.22;;;;;;;;;;5092368;28;20449;-58
2021/11/02 15:34:51;;;;;;;4.05;1.27;;;;;;;;;;5092023;28;20019;-58
2021/11/02 15:37:28;;;;;;;6.60;1.80;;;;;;;;;;5097915;28;20270;-58
2021/11/02 15:40:03;;;;;;;9.50;1.90;;;;;;;;;;5094120;28;20464;-58
2021/11/02 15:42:37;;;;;;;6.70;1.60;;;;;;;;;;5092689;28;20608;-58
2021/11/02 15:45:12;;;;;;;8.50;1.90;;;;;;;;;;5091622;28;20040;-57
2021/11/02 15:47:43;;;;;;;11.43;1.90;;;;;;;;;;5089536;28;20024;-58
2021/11/02 15:50:11;;;;;;;9.00;1.85;;;;;;;;;;5099854;28;20031;-58
2021/11/02 15:52:38;;;;;;;7.57;1.75;;;;;;;;;;5097001;28;20027;-58
2021/11/02 15:55:11;;;;;;;9.02;1.70;;;;;;;;;;5094543;28;20028;-58
2021/11/02 15:57:47;;;;;;;5.68;1.92;;;;;;;;;;5100990;28;20072;-58
2021/11/02 16:00:15;;;;;;;25.08;4.60;;;;;;;;;;5104622;28;20027;-58
2021/11/02 16:02:43;;;;;;;9.05;3.10;;;;;;;;;;5103562;28;20506;-58
2021/11/02 16:05:10;;;;;;;6.45;2.17;;;;;;;;;;5103817;28;20528;-57
2021/11/02 16:07:37;;;;;;;7.78;3.63;;;;;;;;;;5097410;28;20034;-56
2021/11/02 16:10:05;;;;;;;16.17;4.00;;;;;;;;;;5097074;28;20106;-58
2021/11/02 16:12:34;;;;;;;16.17;4.07;;;;;;;;;;5092805;28;20520;-57
2021/11/02 16:15:10;;;;;;;12.43;3.50;;;;;;;;;;5097647;28;20036;-57
2021/11/02 16:17:41;;;;;;;11.85;3.38;;;;;;;;;;5099491;28;20031;-57
2021/11/02 16:20:13;;;;;;;6.85;2.80;;;;;;;;;;5097802;28;20107;-57
2021/11/02 16:22:55;;;;;;;12.15;3.42;;;;;;;;;;5098687;27;20241;-57
2021/11/02 16:25:21;;;;;;;8.25;3.10;;;;;;;;;;5100803;28;20097;-57
2021/11/02 16:28:04;;;;;;;8.80;2.97;;;;;;;;;;5098324;28;20119;-58
2021/11/02 16:30:34;;;;;;;10.82;3.88;;;;;;;;;;5097130;28;20032;-58
2021/11/02 16:33:00;;;;;;;8.70;3.80;;;;;;;;;;5096393;27;20047;-58
2021/11/02 16:35:38;;;;;;;15.88;4.38;;;;;;;;;;5101715;28;20027;-56
2021/11/02 16:38:36;;;;;;;13.63;5.10;;;;;;;;;;5103388;27;20037;-56
2021/11/02 16:41:04;;;;;;;13.57;4.72;;;;;;;;;;5083106;28;20095;-56
2021/11/02 16:43:45;;;;;;;13.20;4.70;;;;;;;;;;5104422;27;20034;-57
2021/11/02 16:46:20;;;;;;;19.63;5.00;;;;;;;;;;5099101;28;20443;-57
2021/11/02 16:48:46;;;;;;;13.40;4.28;;;;;;;;;;5101079;27;20495;-57
2021/11/02 16:51:16;;;;;;;19.73;5.15;;;;;;;;;;5092657;28;20118;-57
2021/11/02 16:53:43;;;;;;;11.98;4.72;;;;;;;;;;5099534;28;20048;-57
2021/11/02 16:56:27;;;;;;;20.70;5.28;;;;;;;;;;5080156;28;20036;-57
2021/11/02 16:58:55;;;;;;;30.73;4.95;;;;;;;;;;5098900;28;20032;-57
2021/11/02 17:01:26;;;;;;;16.15;5.05;;;;;;;;;;5096287;28;20138;-57
2021/11/02 17:03:54;;;;;;;18.70;4.32;;;;;;;;;;5094706;28;20036;-57
2021/11/02 17:06:24;;;;;;;23.50;4.68;;;;;;;;;;5096085;28;20039;-57
2021/11/02 17:08:58;;;;;;;17.23;4.65;;;;;;;;;;5093750;28;20101;-57
2021/11/02 17:11:24;;;;;;;18.67;4.70;;;;;;;;;;5094494;28;20020;-57
2021/11/02 17:13:50;;;;;;;9.65;4.70;;;;;;;;;;5084041;28;20097;-56
2021/11/02 17:16:23;;;;;;;16.13;5.95;;;;;;;;;;5091171;28;20078;-57
2021/11/02 17:19:04;;;;;;;10.45;4.88;;;;;;;;;;5093609;28;20031;-57
2021/11/02 17:21:32;;;;;;;15.43;6.10;;;;;;;;;;5094135;28;20083;-57
2021/11/02 17:23:59;;;;;;;15.80;5.80;;;;;;;;;;5096820;28;20020;-57
2021/11/02 17:26:28;;;;;;;17.45;5.50;;;;;;;;;;5094112;28;20035;-57
2021/11/02 17:28:54;;;;;;;13.30;6.10;;;;;;;;;;5097849;28;20051;-57
2021/11/02 17:31:25;;;;;;;19.50;6.15;;;;;;;;;;5098605;28;20043;-57
2021/11/02 17:33:52;;;;;;;13.02;5.35;;;;;;;;;;5095403;28;20036;-57
2021/11/02 17:36:19;;;;;;;16.00;5.60;;;;;;;;;;5090668;28;20032;-57
2021/11/02 17:38:46;;;;;;;16.95;6.45;;;;;;;;;;5102933;27;20036;-57
2021/11/02 17:41:13;;;;;;;19.90;6.45;;;;;;;;;;5104178;28;20036;-57
2021/11/02 17:43:41;;;;;;;13.65;5.65;;;;;;;;;;5096677;28;20063;-57
2021/11/02 17:46:08;;;;;;;18.17;6.10;;;;;;;;;;5098120;28;20618;-57
2021/11/02 17:48:34;;;;;;;11.73;5.38;;;;;;;;;;5093709;28;20024;-57
2021/11/02 17:51:00;;;;;;;11.85;5.60;;;;;;;;;;5096374;28;20481;-57
2021/11/02 17:53:26;;;;;;;14.82;6.43;;;;;;;;;;5096256;28;20027;-57
2021/11/02 17:55:53;;;;;;;15.07;5.53;;;;;;;;;;5097802;28;20035;-58
2021/11/02 17:58:21;;;;;;;16.15;5.22;;;;;;;;;;5095214;28;20032;-56
2021/11/02 18:00:52;;;;;;;17.00;5.63;;;;;;;;;;5099665;28;20101;-55
2021/11/02 18:03:19;;;;;;;10.93;4.72;;;;;;;;;;5096551;28;20035;-56
2021/11/02 18:05:45;;;;;;;16.00;5.25;;;;;;;;;;5096485;28;20036;-56
2021/11/02 18:08:11;;;;;;;15.10;5.50;;;;;;;;;;5098937;28;20104;-56
2021/11/02 18:10:37;;;;;;;10.90;5.10;;;;;;;;;;5099740;27;20024;-56
2021/11/02 18:13:06;;;;;;;14.18;5.03;;;;;;;;;;5095060;28;20019;-56
2021/11/02 18:15:35;;;;;;;14.90;5.32;;;;;;;;;;5095803;28;20023;-56
2021/11/02 18:18:06;;;;;;;13.73;5.40;;;;;;;;;;5092133;28;20475;-56
2021/11/02 18:20:32;;;;;;;12.27;4.95;;;;;;;;;;5098113;28;20444;-57
2021/11/02 18:22:58;;;;;;;12.77;4.75;;;;;;;;;;5098730;28;20445;-56
2021/11/02 18:25:24;;;;;;;14.05;4.90;;;;;;;;;;5098893;28;20032;-57
2021/11/02 18:27:52;;;;;;;10.57;4.22;;;;;;;;;;5100210;28;20038;-56
2021/11/02 18:30:19;;;;;;;17.75;4.45;;;;;;;;;;5089852;28;20031;-57
2021/11/02 18:32:45;;;;;;;15.07;5.05;;;;;;;;;;5096842;28;20023;-57
2021/11/02 18:35:12;;;;;;;15.70;6.43;;;;;;;;;;5098441;28;20039;-57
2021/11/02 18:37:41;;;;;;;21.73;6.55;;;;;;;;;;5091158;28;20024;-57
2021/11/02 18:40:10;;;;;;;19.92;7.13;;;;;;;;;;5096591;28;20100;-57
2021/11/02 18:42:39;;;;;;;17.02;5.85;;;;;;;;;;5091531;28;20034;-57
2021/11/02 18:45:05;;;;;;;17.13;5.75;;;;;;;;;;5093137;28;20026;-57
2021/11/02 18:47:31;;;;;;;13.60;5.55;;;;;;;;;;5081264;28;20027;-55
2021/11/02 18:49:57;;;;;;;18.65;6.82;;;;;;;;;;5099518;28;20395;-56
2021/11/02 18:52:22;;;;;;;19.63;6.82;;;;;;;;;;5094533;28;20115;-56
2021/11/02 18:54:48;;;;;;;21.88;8.90;;;;;;;;;;5100895;28;20035;-56
2021/11/02 18:57:13;;;;;;;20.42;7.82;;;;;;;;;;5096867;28;20031;-56
2021/11/02 18:59:39;;;;;;;19.10;7.90;;;;;;;;;;5091156;28;20043;-57
2021/11/02 19:02:05;;;;;;;29.15;9.35;;;;;;;;;;5095720;28;20047;-57
2021/11/02 19:04:30;;;;;;;13.82;6.55;;;;;;;;;;5096552;28;20035;-57
2021/11/02 19:06:59;;;;;;;24.00;6.95;;;;;;;;;;5089135;28;20032;-55
2021/11/02 19:09:25;;;;;;;23.25;8.02;;;;;;;;;;5092806;28;20027;-56
2021/11/02 19:11:50;;;;;;;21.02;8.63;;;;;;;;;;5088706;28;20430;-57
2021/11/02 19:14:16;;;;;;;22.20;8.52;;;;;;;;;;5091003;28;20047;-57
2021/11/02 19:16:42;;;;;;;17.45;7.57;;;;;;;;;;5090374;28;20144;-56
2021/11/02 19:19:09;;;;;;;20.17;6.65;;;;;;;;;;5094124;28;20032;-57
2021/11/02 19:21:34;;;;;;;15.93;7.53;;;;;;;;;;5095148;28;20027;-57
2021/11/02 19:24:01;;;;;;;18.27;7.90;;;;;;;;;;5095834;27;20387;-57
2021/11/02 19:26:26;;;;;;;19.63;7.93;;;;;;;;;;5093303;28;20028;-56
2021/11/02 19:28:54;;;;;;;35.60;6.57;;;;;;;;;;5090734;28;20025;-57
2021/11/02 19:31:23;;;;;;;29.13;8.73;;;;;;;;;;5091987;28;20042;-56
2021/11/02 19:33:49;;;;;;;23.42;9.23;;;;;;;;;;5094161;28;20038;-57
2021/11/02 19:36:16;;;;;;;15.20;6.75;;;;;;;;;;5091029;28;20051;-56
2021/11/02 19:38:42;;;;;;;20.40;8.00;;;;;;;;;;5090918;28;20101;-57
2021/11/02 19:41:07;;;;;;;23.77;8.43;;;;;;;;;;5092963;28;20830;-57
2021/11/02 19:43:34;;;;;;;27.25;6.82;;;;;;;;;;5091162;28;20032;-57
2021/11/02 19:46:00;;;;;;;16.75;6.72;;;;;;;;;;5087573;28;20106;-57
2021/11/02 19:48:25;;;;;;;19.10;7.28;;;;;;;;;;5089272;28;20415;-57